Milnesand, New Mexico
Current Conditions -  °F | °C
As of 2:58 AM on Wednesday 26 Nov 2014 (Local Time) from KCVS Reporting Station
Clear Clear  
Wind Chill: 35°   Ceiling: Unl
Heat Index: 43°   Visibility: 10mi
Dew Point: 17°   Wind: 16mph
Humidity: 34%   Direction: 300°WNW
Pressure: 30.09"   Gusts: NA
Location:  33.64°N, 103.34°W
Report Text: KCVS 260958Z AUTO 30014KT 10SM CLR 06/M09 A3009 RMK AO2 SLPNO T00611086 $
Loading
Personal Weather Stations






























Interactive Weather Map New forecast layout! Learn more

10-Day Weather Forecast

Advertisements
Track Severe Weather on mobile